OOCL Nagoya — VRFX8 — position and weather

sailwx.info

Track history (hours):
 
Tides and Currents Weather Stations Pressure Air Temp Water Temp Dewpoint Dewpoint Depression Visibility Wind Speed Wind Dir Waves Ship Positions

OOCL Nagoya

Last reported at 2018-Feb-18 01:40 UTC. Time now 2018-Feb-21 01:57 UTC.
Position N 01°15' E 104°08'.

Length 261 m; draft 12.3 m.

Type: Cargo ship. MMSI: 477627900.

Date/timePositionNaut miles runAvg speedWind from/ knotsBaromVisibWave heightAir tempDewpointWater temp
2018-Feb-18 01:40N 01°15' E 104°08'318.2
2018-Feb-18 01:30N 01°15' E 104°05'816.9
2018-Feb-18 01:01N 01°13' E 103°57'714.2
2018-Feb-18 00:29N 01°11' E 103°50'4 9.0
2018-Feb-18 00:00N 01°14' E 103°47'2 3.1
2018-Feb-17 23:28N 01°15' E 103°47'0 0.0
2018-Feb-17 22:55N 01°15' E 103°47'0 0.0
2018-Feb-17 22:28N 01°15' E 103°47'0 0.0
2018-Feb-17 21:58N 01°15' E 103°47'0 0.0
2018-Feb-17 21:28N 01°15' E 103°47'0 0.0
2018-Feb-17 20:55N 01°15' E 103°47'0 0.0
2018-Feb-17 20:25N 01°16' E 103°47'0 0.0
2018-Feb-17 19:55N 01°15' E 103°47'0 0.0
2018-Feb-17 19:25N 01°16' E 103°47'0 0.0
2018-Feb-17 18:55N 01°15' E 103°47'0 0.0
2018-Feb-17 18:25N 01°15' E 103°47'0 0.0
2018-Feb-17 17:49N 01°15' E 103°47'0 0.1
2018-Feb-17 17:19N 01°15' E 103°47'0 0.0
2018-Feb-17 16:55N 01°15' E 103°47'0 0.1
2018-Feb-17 16:25N 01°15' E 103°47'0 0.1
2018-Feb-17 15:55N 01°16' E 103°47'0 0.1
2018-Feb-17 15:25N 01°15' E 103°47'0 0.0
2018-Feb-17 14:55N 01°16' E 103°47'0 0.0
2018-Feb-17 14:25N 01°15' E 103°47'0 0.0
2018-Feb-17 13:55N 01°15' E 103°47'0 0.0
2018-Feb-17 13:28N 01°15' E 103°47'0 0.0
2018-Feb-17 12:55N 01°15' E 103°47'0 0.0
2018-Feb-17 12:25N 01°15' E 103°47'0 0.0
2018-Feb-17 11:55N 01°15' E 103°47'0 0.0
2018-Feb-17 11:25N 01°15' E 103°47'0 0.0
2018-Feb-17 10:55N 01°15' E 103°47'0 0.0
2018-Feb-17 10:25N 01°15' E 103°47'0 0.0
2018-Feb-17 09:55N 01°15' E 103°47'0 0.0
2018-Feb-17 09:22N 01°15' E 103°47'0 0.0
2018-Feb-17 08:55N 01°15' E 103°47'0 0.0
2018-Feb-17 08:28N 01°15' E 103°47'0 0.0
2018-Feb-17 07:55N 01°15' E 103°47'0 0.0
2018-Feb-17 07:25N 01°15' E 103°47'0 0.1
2018-Feb-17 06:58N 01°15' E 103°47'0 0.1
2018-Feb-17 06:28N 01°15' E 103°47'0 0.0
2018-Feb-17 05:55N 01°16' E 103°47'0 0.0
2018-Feb-17 05:25N 01°15' E 103°47'0 0.0
2018-Feb-17 04:58N 01°15' E 103°47'0 0.0
2018-Feb-17 04:25N 01°15' E 103°47'0 0.0
2018-Feb-17 03:58N 01°16' E 103°47'0 0.0
2018-Feb-17 03:28N 01°15' E 103°47'0 0.0
2018-Feb-17 02:55N 01°15' E 103°47'0 0.0
2018-Feb-17 02:25N 01°16' E 103°47'0 0.0
2018-Feb-17 01:55N 01°15' E 103°47'0 0.1
2018-Feb-17 01:25N 01°15' E 103°47'0 0.1
2018-Feb-17 00:58N 01°15' E 103°47'0 0.0
2018-Feb-17 00:28N 01°15' E 103°47'0 0.0
2018-Feb-16 23:58N 01°15' E 103°47'0 0.0
2018-Feb-16 23:25N 01°15' E 103°47'0 0.0
2018-Feb-16 22:55N 01°15' E 103°47'0 0.0
2018-Feb-16 22:29N 01°15' E 103°47'1 1.2
2018-Feb-16 22:00N 01°15' E 103°46'1 2.6
2018-Feb-16 21:30N 01°14' E 103°47'0 0.8
2018-Feb-16 21:00N 01°14' E 103°47'4 7.7
2018-Feb-16 20:30N 01°12' E 103°51'4 7.6
2018-Feb-16 20:00N 01°14' E 103°54'510.5
2018-Feb-16 19:30N 01°15' E 103°59'1812.9
2018-Feb-16 18:08N 01°18' E 104°17'1911.1
2018-Feb-16 16:25N 01°26' E 104°34'510.4
2018-Feb-16 15:56N 01°22' E 104°37'510.4
2018-Feb-16 15:26N 01°18' E 104°41'  
2018-Feb-11 08:55N 01°16' E 104°07'716.7
2018-Feb-11 08:30N 01°14' E 104°01'816.7
2018-Feb-11 08:00N 01°12' E 103°53'5 9.1
2018-Feb-11 07:29N 01°13' E 103°48'3 6.5
2018-Feb-11 06:59N 01°15' E 103°47'0 0.1
2018-Feb-11 06:28N 01°16' E 103°47'0 0.1
2018-Feb-11 05:58N 01°16' E 103°47'0 0.0
2018-Feb-11 05:28N 01°15' E 103°47'0 0.1
2018-Feb-11 04:58N 01°16' E 103°47'0 0.0
2018-Feb-11 04:28N 01°15' E 103°47'0 0.1
2018-Feb-11 03:58N 01°15' E 103°47'0 0.1
2018-Feb-11 03:28N 01°15' E 103°47'0 0.0
2018-Feb-11 02:58N 01°16' E 103°47'0 0.0
2018-Feb-11 02:28N 01°16' E 103°47'0 0.0
2018-Feb-11 01:58N 01°16' E 103°47'0 0.0
2018-Feb-11 01:28N 01°16' E 103°47'0 0.0
2018-Feb-11 00:58N 01°16' E 103°47'0 0.1
2018-Feb-11 00:28N 01°16' E 103°47'0 0.1
2018-Feb-10 23:58N 01°16' E 103°47'0 0.0
2018-Feb-10 23:28N 01°15' E 103°47'0 0.1
2018-Feb-10 22:58N 01°15' E 103°47'0 0.1
2018-Feb-10 22:28N 01°16' E 103°47'0 0.0
2018-Feb-10 21:58N 01°15' E 103°47'0 0.0
2018-Feb-10 21:28N 01°16' E 103°47'0 0.1
2018-Feb-10 20:58N 01°15' E 103°47'0 0.0
2018-Feb-10 20:28N 01°16' E 103°47'0 0.0
2018-Feb-10 19:58N 01°16' E 103°47'0 0.0
2018-Feb-10 19:28N 01°15' E 103°47'0 0.0
2018-Feb-10 18:58N 01°16' E 103°47'0 0.1
2018-Feb-10 18:28N 01°15' E 103°47'0 0.0
2018-Feb-10 17:55N 01°15' E 103°47'0 0.1
2018-Feb-10 17:28N 01°16' E 103°47'0 0.0
2018-Feb-10 16:58N 01°16' E 103°47'0 0.0
2018-Feb-10 16:28N 01°16' E 103°47'0 0.0
2018-Feb-10 15:58N 01°16' E 103°47'0 0.1
2018-Feb-10 15:28N 01°16' E 103°47'0 0.0
2018-Feb-10 14:58N 01°16' E 103°47'0 0.1
2018-Feb-10 14:28N 01°16' E 103°47'0 0.0
2018-Feb-10 14:00N 01°15' E 103°47'1 1.1
2018-Feb-10 13:30N 01°15' E 103°46'4 7.1
2018-Feb-10 12:59N 01°13' E 103°49'610.6
2018-Feb-10 12:28N 01°14' E 103°54'4 8.9
2018-Feb-10 12:00N 01°15' E 103°58'510.1
2018-Feb-10 11:29N 01°16' E 104°03'12 9.5
2018-Feb-10 10:16N 01°17' E 104°15'  
Track history (hours):
 
Tides and Currents Weather Stations Pressure Air Temp Water Temp Dewpoint Dewpoint Depression Visibility Wind Speed Wind Dir Waves Ship Positions

OOCL Nagoya

Last reported at 2018-Feb-18 01:40 UTC. Time now 2018-Feb-21 01:57 UTC.
Position N 01°15' E 104°08'.

Length 261 m; draft 12.3 m.

Type: Cargo ship. MMSI: 477627900.

Date/timePositionNaut miles runAvg speedWind from/ knotsBaromVisibWave heightAir tempDewpointWater temp
2018-Feb-18 01:40N 01°15' E 104°08'318.2
2018-Feb-18 01:30N 01°15' E 104°05'816.9
2018-Feb-18 01:01N 01°13' E 103°57'714.2
2018-Feb-18 00:29N 01°11' E 103°50'4 9.0
2018-Feb-18 00:00N 01°14' E 103°47'2 3.1
2018-Feb-17 23:28N 01°15' E 103°47'0 0.0
2018-Feb-17 22:55N 01°15' E 103°47'0 0.0
2018-Feb-17 22:28N 01°15' E 103°47'0 0.0
2018-Feb-17 21:58N 01°15' E 103°47'0 0.0
2018-Feb-17 21:28N 01°15' E 103°47'0 0.0
2018-Feb-17 20:55N 01°15' E 103°47'0 0.0
2018-Feb-17 20:25N 01°16' E 103°47'0 0.0
2018-Feb-17 19:55N 01°15' E 103°47'0 0.0
2018-Feb-17 19:25N 01°16' E 103°47'0 0.0
2018-Feb-17 18:55N 01°15' E 103°47'0 0.0
2018-Feb-17 18:25N 01°15' E 103°47'0 0.0
2018-Feb-17 17:49N 01°15' E 103°47'0 0.1
2018-Feb-17 17:19N 01°15' E 103°47'0 0.0
2018-Feb-17 16:55N 01°15' E 103°47'0 0.1
2018-Feb-17 16:25N 01°15' E 103°47'0 0.1
2018-Feb-17 15:55N 01°16' E 103°47'0 0.1
2018-Feb-17 15:25N 01°15' E 103°47'0 0.0
2018-Feb-17 14:55N 01°16' E 103°47'0 0.0
2018-Feb-17 14:25N 01°15' E 103°47'0 0.0
2018-Feb-17 13:55N 01°15' E 103°47'0 0.0
2018-Feb-17 13:28N 01°15' E 103°47'0 0.0
2018-Feb-17 12:55N 01°15' E 103°47'0 0.0
2018-Feb-17 12:25N 01°15' E 103°47'0 0.0
2018-Feb-17 11:55N 01°15' E 103°47'0 0.0
2018-Feb-17 11:25N 01°15' E 103°47'0 0.0
2018-Feb-17 10:55N 01°15' E 103°47'0 0.0
2018-Feb-17 10:25N 01°15' E 103°47'0 0.0
2018-Feb-17 09:55N 01°15' E 103°47'0 0.0
2018-Feb-17 09:22N 01°15' E 103°47'0 0.0
2018-Feb-17 08:55N 01°15' E 103°47'0 0.0
2018-Feb-17 08:28N 01°15' E 103°47'0 0.0
2018-Feb-17 07:55N 01°15' E 103°47'0 0.0
2018-Feb-17 07:25N 01°15' E 103°47'0 0.1
2018-Feb-17 06:58N 01°15' E 103°47'0 0.1
2018-Feb-17 06:28N 01°15' E 103°47'0 0.0
2018-Feb-17 05:55N 01°16' E 103°47'0 0.0
2018-Feb-17 05:25N 01°15' E 103°47'0 0.0
2018-Feb-17 04:58N 01°15' E 103°47'0 0.0
2018-Feb-17 04:25N 01°15' E 103°47'0 0.0
2018-Feb-17 03:58N 01°16' E 103°47'0 0.0
2018-Feb-17 03:28N 01°15' E 103°47'0 0.0
2018-Feb-17 02:55N 01°15' E 103°47'0 0.0
2018-Feb-17 02:25N 01°16' E 103°47'0 0.0
2018-Feb-17 01:55N 01°15' E 103°47'0 0.1
2018-Feb-17 01:25N 01°15' E 103°47'0 0.1
2018-Feb-17 00:58N 01°15' E 103°47'0 0.0
2018-Feb-17 00:28N 01°15' E 103°47'0 0.0
2018-Feb-16 23:58N 01°15' E 103°47'0 0.0
2018-Feb-16 23:25N 01°15' E 103°47'0 0.0
2018-Feb-16 22:55N 01°15' E 103°47'0 0.0
2018-Feb-16 22:29N 01°15' E 103°47'1 1.2
2018-Feb-16 22:00N 01°15' E 103°46'1 2.6
2018-Feb-16 21:30N 01°14' E 103°47'0 0.8
2018-Feb-16 21:00N 01°14' E 103°47'4 7.7
2018-Feb-16 20:30N 01°12' E 103°51'4 7.6
2018-Feb-16 20:00N 01°14' E 103°54'510.5
2018-Feb-16 19:30N 01°15' E 103°59'1812.9
2018-Feb-16 18:08N 01°18' E 104°17'1911.1
2018-Feb-16 16:25N 01°26' E 104°34'510.4
2018-Feb-16 15:56N 01°22' E 104°37'510.4
2018-Feb-16 15:26N 01°18' E 104°41'  
2018-Feb-11 08:55N 01°16' E 104°07'716.7
2018-Feb-11 08:30N 01°14' E 104°01'816.7
2018-Feb-11 08:00N 01°12' E 103°53'5 9.1
2018-Feb-11 07:29N 01°13' E 103°48'3 6.5
2018-Feb-11 06:59N 01°15' E 103°47'0 0.1
2018-Feb-11 06:28N 01°16' E 103°47'0 0.1
2018-Feb-11 05:58N 01°16' E 103°47'0 0.0
2018-Feb-11 05:28N 01°15' E 103°47'0 0.1
2018-Feb-11 04:58N 01°16' E 103°47'0 0.0
2018-Feb-11 04:28N 01°15' E 103°47'0 0.1
2018-Feb-11 03:58N 01°15' E 103°47'0 0.1
2018-Feb-11 03:28N 01°15' E 103°47'0 0.0
2018-Feb-11 02:58N 01°16' E 103°47'0 0.0
2018-Feb-11 02:28N 01°16' E 103°47'0 0.0
2018-Feb-11 01:58N 01°16' E 103°47'0 0.0
2018-Feb-11 01:28N 01°16' E 103°47'0 0.0
2018-Feb-11 00:58N 01°16' E 103°47'0 0.1
2018-Feb-11 00:28N 01°16' E 103°47'0 0.1
2018-Feb-10 23:58N 01°16' E 103°47'0 0.0
2018-Feb-10 23:28N 01°15' E 103°47'0 0.1
2018-Feb-10 22:58N 01°15' E 103°47'0 0.1
2018-Feb-10 22:28N 01°16' E 103°47'0 0.0
2018-Feb-10 21:58N 01°15' E 103°47'0 0.0
2018-Feb-10 21:28N 01°16' E 103°47'0 0.1
2018-Feb-10 20:58N 01°15' E 103°47'0 0.0
2018-Feb-10 20:28N 01°16' E 103°47'0 0.0
2018-Feb-10 19:58N 01°16' E 103°47'0 0.0
2018-Feb-10 19:28N 01°15' E 103°47'0 0.0
2018-Feb-10 18:58N 01°16' E 103°47'0 0.1
2018-Feb-10 18:28N 01°15' E 103°47'0 0.0
2018-Feb-10 17:55N 01°15' E 103°47'0 0.1
2018-Feb-10 17:28N 01°16' E 103°47'0 0.0
2018-Feb-10 16:58N 01°16' E 103°47'0 0.0
2018-Feb-10 16:28N 01°16' E 103°47'0 0.0
2018-Feb-10 15:58N 01°16' E 103°47'0 0.1
2018-Feb-10 15:28N 01°16' E 103°47'0 0.0
2018-Feb-10 14:58N 01°16' E 103°47'0 0.1
2018-Feb-10 14:28N 01°16' E 103°47'0 0.0
2018-Feb-10 14:00N 01°15' E 103°47'1 1.1
2018-Feb-10 13:30N 01°15' E 103°46'4 7.1
2018-Feb-10 12:59N 01°13' E 103°49'610.6
2018-Feb-10 12:28N 01°14' E 103°54'4 8.9
2018-Feb-10 12:00N 01°15' E 103°58'510.1
2018-Feb-10 11:29N 01°16' E 104°03'12 9.5
2018-Feb-10 10:16N 01°17' E 104°15'  

Dump ship's entire track history